createdAt,value
2022-11-21T00:01:56.334Z,100542.09
2022-11-21T00:04:43.774Z,100544.75
2022-11-21T00:07:31.212Z,100555.97
2022-11-21T00:10:18.676Z,100555.97
2022-11-21T00:13:06.441Z,100555.88
2022-11-21T00:15:53.881Z,100553.25
2022-11-21T00:18:42.417Z,100561.66
2022-11-21T00:21:29.884Z,100556.47
2022-11-21T00:24:17.244Z,100545.44
2022-11-21T00:27:04.613Z,100544.72
2022-11-21T00:29:51.918Z,100543.22
2022-11-21T00:32:39.357Z,100534.72
2022-11-21T00:35:27.232Z,100540.66
2022-11-21T00:38:14.605Z,100549.06
2022-11-21T00:41:02.117Z,100546.34
2022-11-21T00:43:49.533Z,100549.56
2022-11-21T00:46:36.953Z,100547.09
2022-11-21T00:49:24.405Z,100529.53
2022-11-21T00:52:11.890Z,100528.78
2022-11-21T00:54:59.299Z,100546.66
2022-11-21T00:57:46.727Z,100536.44
2022-11-21T01:00:34.167Z,100523.78
2022-11-21T01:03:21.639Z,100519.63
2022-11-21T01:06:13.220Z,100516.50
2022-11-21T01:09:00.667Z,100512.31
2022-11-21T01:11:48.033Z,100520.84
2022-11-21T01:14:35.476Z,100514.78
2022-11-21T01:17:22.875Z,100524.81
2022-11-21T01:20:10.388Z,100524.81
2022-11-21T01:22:57.798Z,100519.81
2022-11-21T01:25:45.180Z,100518.00
2022-11-21T01:28:32.853Z,100502.84
2022-11-21T01:31:21.650Z,100495.44
2022-11-21T01:34:09.146Z,100484.56
2022-11-21T01:36:56.529Z,100477.22
2022-11-21T01:39:43.870Z,100476.63
2022-11-21T01:42:43.886Z,100474.28
2022-11-21T01:45:52.560Z,100464.41
2022-11-21T01:48:46.078Z,100463.72
2022-11-21T01:51:36.442Z,100449.56
2022-11-21T01:54:27.370Z,100451.44
2022-11-21T01:57:17.492Z,100465.16
2022-11-21T02:00:08.335Z,100459.97
2022-11-21T02:02:58.782Z,100456.69
2022-11-21T02:05:46.907Z,100445.81
2022-11-21T02:08:34.430Z,100439.44
2022-11-21T02:11:35.309Z,100454.38
2022-11-21T02:14:23.582Z,100452.09
2022-11-21T02:17:11.084Z,100465.81
2022-11-21T02:20:09.644Z,100462.38
2022-11-21T02:23:09.345Z,100450.41
2022-11-21T02:25:56.790Z,100438.41
2022-11-21T02:28:44.480Z,100433.34
2022-11-21T02:31:31.869Z,100434.56
2022-11-21T02:34:19.612Z,100443.25
2022-11-21T02:37:08.610Z,100432.38
2022-11-21T02:39:58.625Z,100430.00
2022-11-21T02:42:59.146Z,100427.91
2022-11-21T02:45:46.699Z,100445.19
2022-11-21T02:48:35.192Z,100440.44
2022-11-21T02:51:22.714Z,100432.19
2022-11-21T02:54:10.068Z,100422.81
2022-11-21T02:56:57.716Z,100418.41
2022-11-21T02:59:45.085Z,100412.22
2022-11-21T03:02:32.485Z,100409.38
2022-11-21T03:05:20.765Z,100422.81
2022-11-21T03:08:08.235Z,100420.03
2022-11-21T03:10:55.641Z,100422.34
2022-11-21T03:13:43.040Z,100421.16
2022-11-21T03:16:30.387Z,100420.78
2022-11-21T03:19:17.788Z,100422.22
2022-11-21T03:22:05.157Z,100414.44
2022-11-21T03:24:52.554Z,100412.75
2022-11-21T03:27:39.916Z,100413.72
2022-11-21T03:30:27.596Z,100421.53
2022-11-21T03:33:15.008Z,100417.28
2022-11-21T03:36:02.472Z,100432.47
2022-11-21T03:38:49.934Z,100435.03
2022-11-21T03:41:37.334Z,100438.41
2022-11-21T03:44:25.294Z,100441.00
2022-11-21T03:47:13.001Z,100444.47
2022-11-21T03:50:00.526Z,100446.19
2022-11-21T03:52:48.064Z,100441.00
2022-11-21T03:55:35.491Z,100434.13
2022-11-21T03:58:22.908Z,100447.59
2022-11-21T04:01:10.874Z,100444.25
2022-11-21T04:03:58.489Z,100437.41
2022-11-21T04:06:45.915Z,100439.16
2022-11-21T04:09:33.666Z,100429.84
2022-11-21T04:12:21.141Z,100425.72
2022-11-21T04:15:13.502Z,100421.63
2022-11-21T04:18:01.493Z,100424.28
2022-11-21T04:20:48.879Z,100423.53
2022-11-21T04:23:36.497Z,100426.16
2022-11-21T04:26:23.847Z,100428.63
2022-11-21T04:29:11.282Z,100427.75
2022-11-21T04:31:58.690Z,100414.09
2022-11-21T04:34:46.029Z,100406.47
2022-11-21T04:37:33.503Z,100398.91
2022-11-21T04:40:21.161Z,100394.63
2022-11-21T04:43:08.593Z,100397.03
2022-11-21T04:45:55.999Z,100400.41
2022-11-21T04:48:43.455Z,100402.78
2022-11-21T05:44:06.780Z,100384.16
2022-11-21T05:46:54.547Z,100370.50
2022-11-21T05:49:44.377Z,100372.00
2022-11-21T14:05:02.320Z,100225.41
2022-11-21T16:34:58.362Z,100189.78
2022-11-21T16:37:47.234Z,100185.91
2022-11-21T16:40:35.093Z,100184.09
2022-11-21T16:43:23.611Z,100193.06
2022-11-21T16:46:11.265Z,100187.91
2022-11-21T16:49:00.974Z,100193.56
2022-11-21T16:51:49.053Z,100193.00
2022-11-21T16:54:36.693Z,100193.91
2022-11-21T16:57:24.338Z,100192.25
2022-11-21T17:00:12.317Z,100187.06
2022-11-21T17:03:00.803Z,100189.53
2022-11-21T17:05:58.415Z,100184.63
2022-11-21T17:08:47.200Z,100173.69
2022-11-21T17:11:35.003Z,100172.69
2022-11-21T17:14:22.775Z,100167.44
2022-11-21T17:17:10.439Z,100166.59
2022-11-21T17:19:59.087Z,100155.84
2022-11-21T17:22:47.121Z,100150.25
2022-11-21T17:25:34.914Z,100151.06
2022-11-21T17:28:22.723Z,100147.78
2022-11-21T17:37:15.594Z,100142.13
2022-11-21T17:40:25.190Z,100147.78
2022-11-21T17:43:58.298Z,100138.66
2022-11-21T17:47:05.958Z,100146.94
2022-11-21T17:49:53.829Z,100146.94
2022-11-21T17:52:41.603Z,100149.09
2022-11-21T17:55:29.182Z,100149.09
2022-11-21T17:58:16.746Z,100149.25
2022-11-21T18:01:06.188Z,100152.69
2022-11-21T18:04:02.321Z,100157.09
2022-11-21T18:06:50.360Z,100153.84
2022-11-21T18:09:40.471Z,100158.88
2022-11-21T18:12:28.123Z,100147.69
2022-11-21T18:15:15.751Z,100155.41
2022-11-21T18:18:06.119Z,100141.19
2022-11-21T18:21:12.009Z,100148.09
2022-11-21T18:24:00.400Z,100139.72
2022-11-21T18:26:48.366Z,100128.03
2022-11-21T18:29:37.168Z,100133.22
2022-11-21T18:32:25.110Z,100123.28
2022-11-21T18:35:12.871Z,100123.13
2022-11-21T18:38:00.613Z,100124.03
2022-11-21T18:40:48.208Z,100112.50
2022-11-21T18:43:42.519Z,100115.06
2022-11-21T18:46:32.004Z,100119.25
2022-11-21T18:49:22.077Z,100116.72
2022-11-21T18:52:09.775Z,100116.72
2022-11-21T18:54:57.517Z,100103.25
2022-11-21T18:57:45.271Z,100103.25
2022-11-21T19:00:33.016Z,100107.72
2022-11-21T19:03:20.768Z,100106.94
2022-11-21T19:06:17.850Z,100103.03
2022-11-21T19:09:08.623Z,100094.75
2022-11-21T19:11:59.182Z,100095.34
2022-11-21T19:14:47.238Z,100086.88
2022-11-21T19:17:35.096Z,100089.41
2022-11-21T19:20:22.846Z,100092.94
2022-11-21T19:23:10.562Z,100087.94
2022-11-21T19:26:02.847Z,100091.06
2022-11-21T19:28:52.819Z,100091.13
2022-11-21T19:31:45.993Z,100085.81
2022-11-21T19:34:34.047Z,100082.34
2022-11-21T19:37:21.898Z,100080.72
2022-11-21T19:40:14.400Z,100065.09
2022-11-21T19:43:02.760Z,100074.38
2022-11-21T19:45:53.718Z,100071.19
2022-11-21T19:48:53.546Z,100075.28
2022-11-21T19:51:42.233Z,100069.28
2022-11-21T19:54:30.070Z,100064.13
2022-11-21T19:57:17.879Z,100060.75
2022-11-21T20:00:08.539Z,100063.13
2022-11-21T20:02:57.541Z,100048.78
2022-11-21T20:05:45.250Z,100051.47
2022-11-21T20:08:33.361Z,100044.84
2022-11-21T20:11:22.384Z,100049.97
2022-11-21T20:14:10.412Z,100032.34
2022-11-21T20:16:58.031Z,100038.41
2022-11-21T20:19:50.632Z,100044.31
2022-11-21T20:22:38.485Z,100041.28
2022-11-21T20:25:26.154Z,100043.91
2022-11-21T20:28:13.769Z,100039.72
2022-11-21T20:31:22.858Z,100039.63
2022-11-21T20:34:12.790Z,100040.69
2022-11-21T20:37:00.870Z,100045.88
2022-11-21T20:39:48.517Z,100038.41
2022-11-21T20:42:37.413Z,100040.13
2022-11-21T20:46:07.139Z,100041.09
2022-11-21T20:48:35.742Z,100030.91
2022-11-21T20:54:31.832Z,100027.81
2022-11-21T20:57:19.654Z,100041.03
2022-11-21T21:00:08.019Z,100048.53
2022-11-21T21:02:55.736Z,100045.16
2022-11-21T21:05:43.653Z,100043.44
2022-11-21T21:08:32.094Z,100025.66
2022-11-21T21:11:51.368Z,100024.88
2022-11-21T21:14:30.386Z,100033.31
2022-11-21T21:17:18.071Z,100017.16
2022-11-21T21:20:06.504Z,100018.78
2022-11-21T21:22:54.933Z,100015.75
2022-11-21T21:25:42.881Z,100013.13
2022-11-21T21:28:30.740Z,100012.19
2022-11-21T21:31:21.033Z,100011.31
2022-11-21T21:34:09.926Z,100001.03
2022-11-21T21:36:57.502Z,99999.25
2022-11-21T21:39:45.094Z,99987.25
2022-11-21T21:42:32.770Z,99989.06
2022-11-21T21:45:20.475Z,99989.22
2022-11-21T21:48:08.094Z,100001.13
2022-11-21T21:51:04.690Z,100000.06
2022-11-21T21:53:52.855Z,100000.94
2022-11-21T21:56:40.420Z,99998.41
2022-11-21T21:59:28.057Z,99995.78
2022-11-21T22:02:15.743Z,99999.06
2022-11-21T22:05:03.631Z,99990.53
2022-11-21T22:07:51.341Z,99993.09
2022-11-21T22:10:38.998Z,99997.59
2022-11-21T22:13:26.679Z,99993.09
2022-11-21T22:16:15.134Z,99989.47
2022-11-21T22:19:02.774Z,99987.66
2022-11-21T22:21:50.484Z,99970.81
2022-11-21T22:24:39.264Z,99976.88
2022-11-21T22:27:27.214Z,99964.44
2022-11-21T22:30:14.825Z,99957.94
2022-11-21T22:33:02.651Z,99952.13
2022-11-21T22:35:50.918Z,99953.75
2022-11-21T22:38:38.600Z,99940.13
2022-11-21T22:41:27.344Z,99934.63
2022-11-21T22:44:15.024Z,99924.50
2022-11-21T22:47:02.726Z,99906.13
2022-11-21T22:49:50.358Z,99907.19
2022-11-21T22:52:38.129Z,99897.00
2022-11-21T22:55:26.832Z,99889.53
2022-11-21T22:58:14.502Z,99885.28
2022-11-21T23:01:05.548Z,99885.19
2022-11-21T23:03:53.696Z,99872.47
2022-11-21T23:06:41.489Z,99873.28
2022-11-21T23:09:29.331Z,99877.47
2022-11-21T23:12:17.080Z,99866.53
2022-11-21T23:15:05.204Z,99863.44
2022-11-21T23:17:53.097Z,99866.78
2022-11-21T23:20:42.792Z,99854.25
2022-11-21T23:23:30.934Z,99860.25
2022-11-21T23:26:19.009Z,99858.44
2022-11-21T23:29:08.846Z,99857.72
2022-11-21T23:31:57.009Z,99861.78
2022-11-21T23:34:44.792Z,99863.91
2022-11-21T23:37:32.508Z,99865.28
2022-11-21T23:40:20.321Z,99855.84
2022-11-21T23:43:08.051Z,99847.97
2022-11-21T23:45:55.903Z,99842.63
2022-11-21T23:48:43.669Z,99839.97
2022-11-21T23:51:31.390Z,99833.97
2022-11-21T23:54:19.132Z,99826.34
2022-11-21T23:57:06.958Z,99821.53
2022-11-21T23:59:55.192Z,99824.81
